createdAt,value
2023-03-28T00:01:45.744Z,100.00
2023-03-28T00:04:15.333Z,100.00
2023-03-28T00:06:46.455Z,100.00
2023-03-28T00:09:16.963Z,100.00
2023-03-28T00:11:49.313Z,100.00
2023-03-28T00:14:18.800Z,100.00
2023-03-28T00:16:48.394Z,100.00
2023-03-28T00:19:20.887Z,100.00
2023-03-28T00:21:52.350Z,100.00
2023-03-28T00:24:23.944Z,100.00
2023-03-28T00:27:00.633Z,100.00
2023-03-28T00:29:30.323Z,100.00
2023-03-28T00:31:59.865Z,100.00
2023-03-28T00:34:29.349Z,100.00
2023-03-28T00:36:58.912Z,100.00
2023-03-28T00:39:29.558Z,100.00
2023-03-28T00:42:02.924Z,100.00
2023-03-28T00:44:47.581Z,100.00
2023-03-28T00:47:36.896Z,100.00
2023-03-28T00:50:11.057Z,100.00
2023-03-28T00:52:43.297Z,100.00
2023-03-28T00:55:16.563Z,100.00
2023-03-28T00:57:50.441Z,100.00
2023-03-28T01:00:21.213Z,100.00
2023-03-28T01:02:53.271Z,100.00
2023-03-28T01:05:27.321Z,100.00
2023-03-28T01:07:59.888Z,100.00
2023-03-28T01:10:29.600Z,100.00
2023-03-28T01:13:02.173Z,100.00
2023-03-28T01:15:33.643Z,100.00
2023-03-28T01:18:10.778Z,100.00
2023-03-28T01:21:18.418Z,100.00
2023-03-28T01:24:13.772Z,100.00
2023-03-28T01:27:01.322Z,100.00
2023-03-28T01:30:02.734Z,100.00
2023-03-28T01:33:07.736Z,100.00
2023-03-28T01:36:03.231Z,100.00
2023-03-28T01:38:39.639Z,100.00
2023-03-28T01:41:17.436Z,100.00
2023-03-28T01:43:51.801Z,100.00
2023-03-28T01:46:25.117Z,100.00
2023-03-28T01:49:00.963Z,100.00
2023-03-28T01:51:39.012Z,100.00
2023-03-28T01:54:16.254Z,100.00
2023-03-28T01:56:50.938Z,100.00
2023-03-28T01:59:23.631Z,100.00
2023-03-28T02:01:56.320Z,100.00
2023-03-28T02:04:29.325Z,100.00
2023-03-28T02:06:59.913Z,100.00
2023-03-28T02:09:34.352Z,100.00
2023-03-28T02:12:07.712Z,100.00
2023-03-28T02:14:41.399Z,100.00
2023-03-28T02:17:15.676Z,100.00
2023-03-28T02:19:49.099Z,100.00
2023-03-28T02:22:23.169Z,100.00
2023-03-28T02:24:56.505Z,100.00
2023-03-28T02:27:26.082Z,100.00
2023-03-28T02:29:56.156Z,100.00
2023-03-28T02:32:25.939Z,100.00
2023-03-28T02:34:56.361Z,100.00
2023-03-28T02:37:34.094Z,100.00
2023-03-28T02:40:21.781Z,100.00
2023-03-28T02:43:18.421Z,100.00
2023-03-28T02:46:18.419Z,100.00
2023-03-28T02:49:08.811Z,100.00
2023-03-28T02:51:46.515Z,100.00
2023-03-28T02:54:26.377Z,100.00
2023-03-28T02:57:06.452Z,100.00
2023-03-28T02:59:38.688Z,100.00
2023-03-28T03:02:08.484Z,100.00
2023-03-28T03:04:38.213Z,100.00
2023-03-28T03:07:09.147Z,100.00
2023-03-28T03:09:38.704Z,100.00
2023-03-28T03:12:11.238Z,100.00
2023-03-28T03:14:40.837Z,100.00
2023-03-28T03:17:11.007Z,100.00
2023-03-28T03:19:43.267Z,100.00
2023-03-28T03:22:21.079Z,100.00
2023-03-28T03:24:51.257Z,100.00
2023-03-28T03:27:23.766Z,100.00
2023-03-28T03:29:53.371Z,100.00
2023-03-28T03:32:22.905Z,100.00
2023-03-28T03:34:52.407Z,100.00
2023-03-28T03:37:22.917Z,100.00
2023-03-28T03:39:52.402Z,100.00
2023-03-28T03:42:29.127Z,100.00
2023-03-28T03:44:58.628Z,100.00
2023-03-28T03:47:28.132Z,100.00
2023-03-28T03:49:57.606Z,100.00
2023-03-28T03:52:27.335Z,100.00
2023-03-28T03:54:56.817Z,100.00
2023-03-28T03:57:28.861Z,100.00
2023-03-28T04:00:00.063Z,100.00
2023-03-28T04:02:29.636Z,100.00
2023-03-28T04:04:59.964Z,100.00
2023-03-28T04:07:29.431Z,100.00
2023-03-28T04:09:59.635Z,100.00
2023-03-28T04:12:31.789Z,100.00
2023-03-28T04:15:01.264Z,100.00
2023-03-28T04:17:34.933Z,100.00
2023-03-28T04:20:13.848Z,100.00
2023-03-28T04:22:45.121Z,100.00
2023-03-28T04:25:17.919Z,100.00
2023-03-28T04:27:50.462Z,100.00
2023-03-28T04:30:20.479Z,100.00
2023-03-28T04:32:54.520Z,100.00
2023-03-28T04:35:24.323Z,100.00
2023-03-28T04:37:57.957Z,100.00
2023-03-28T04:40:28.311Z,100.00
2023-03-28T04:43:00.411Z,100.00
2023-03-28T04:45:30.013Z,100.00
2023-03-28T04:47:59.675Z,100.00
2023-03-28T04:50:29.192Z,100.00
2023-03-28T04:52:58.665Z,100.00
2023-03-28T04:55:28.576Z,100.00
2023-03-28T04:58:01.077Z,100.00
2023-03-28T05:00:30.706Z,100.00
2023-03-28T05:03:01.020Z,100.00
2023-03-28T05:05:31.073Z,100.00
2023-03-28T05:08:00.874Z,100.00
2023-03-28T05:10:30.474Z,100.00
2023-03-28T05:13:02.655Z,100.00
2023-03-28T05:15:32.345Z,100.00
2023-03-28T05:18:02.110Z,100.00
2023-03-28T05:20:31.767Z,100.00
2023-03-28T05:23:02.276Z,100.00
2023-03-28T05:25:31.883Z,100.00
2023-03-28T05:28:04.604Z,100.00
2023-03-28T05:30:34.329Z,100.00
2023-03-28T05:33:04.153Z,100.00
2023-03-28T05:35:33.803Z,100.00
2023-03-28T05:38:03.528Z,100.00
2023-03-28T05:40:33.051Z,100.00
2023-03-28T05:43:05.184Z,100.00
2023-03-28T05:45:34.789Z,100.00
2023-03-28T05:48:04.365Z,100.00
2023-03-28T05:50:33.933Z,100.00
2023-03-28T05:53:03.777Z,100.00
2023-03-28T05:55:35.375Z,100.00
2023-03-28T05:58:08.048Z,100.00
2023-03-28T06:00:37.537Z,100.00
2023-03-28T06:03:08.123Z,100.00
2023-03-28T06:05:38.196Z,100.00
2023-03-28T06:08:09.521Z,100.00
2023-03-28T06:10:39.291Z,100.00
2023-03-28T06:13:11.766Z,100.00
2023-03-28T06:15:41.558Z,100.00
2023-03-28T06:18:11.294Z,100.00
2023-03-28T06:20:40.908Z,100.00
2023-03-28T06:23:10.497Z,100.00
2023-03-28T06:25:40.047Z,100.00
2023-03-28T06:28:12.186Z,100.00
2023-03-28T06:30:42.884Z,100.00
2023-03-28T06:33:12.388Z,100.00
2023-03-28T06:35:41.980Z,100.00
2023-03-28T06:38:11.559Z,100.00
2023-03-28T06:40:41.373Z,100.00
2023-03-28T06:43:13.779Z,100.00
2023-03-28T06:45:43.574Z,100.00
2023-03-28T06:48:13.341Z,100.00
2023-03-28T06:50:43.336Z,100.00
2023-03-28T06:53:13.169Z,100.00
2023-03-28T06:55:42.796Z,100.00
2023-03-28T06:58:15.055Z,100.00
2023-03-28T07:00:44.701Z,100.00
2023-03-28T07:03:14.596Z,100.00
2023-03-28T07:05:45.331Z,100.00
2023-03-28T07:08:15.938Z,100.00
2023-03-28T07:10:45.687Z,100.00
2023-03-28T07:13:17.826Z,100.00
2023-03-28T07:15:47.284Z,100.00
2023-03-28T07:18:17.032Z,100.00
2023-03-28T07:20:51.979Z,100.00
2023-03-28T07:23:31.132Z,100.00
2023-03-28T07:26:00.824Z,100.00
2023-03-28T07:28:33.129Z,100.00
2023-03-28T07:31:04.771Z,100.00
2023-03-28T07:33:37.428Z,100.00
2023-03-28T07:36:13.014Z,100.00
2023-03-28T07:38:42.877Z,100.00
2023-03-28T07:41:13.075Z,100.00
2023-03-28T07:43:47.502Z,100.00
2023-03-28T07:46:18.241Z,100.00
2023-03-28T07:48:47.900Z,100.00
2023-03-28T07:51:18.625Z,100.00
2023-03-28T07:53:48.240Z,100.00
2023-03-28T07:56:17.958Z,100.00
2023-03-28T07:58:50.109Z,100.00
2023-03-28T08:01:22.909Z,100.00
2023-03-28T08:03:53.125Z,100.00
2023-03-28T08:06:32.155Z,100.00
2023-03-28T08:09:02.376Z,100.00
2023-03-28T08:11:31.902Z,100.00
2023-03-28T08:14:04.340Z,100.00
2023-03-28T08:16:34.500Z,100.00
2023-03-28T08:21:39.434Z,100.00
2023-03-28T08:24:17.351Z,100.00
2023-03-28T08:26:52.293Z,100.00
2023-03-28T08:29:24.412Z,100.00
2023-03-28T08:31:54.157Z,100.00
2023-03-28T08:34:23.703Z,100.00
2023-03-28T08:36:53.526Z,100.00
2023-03-28T08:39:23.518Z,100.00
2023-03-28T08:42:11.187Z,100.00
2023-03-28T08:44:59.344Z,100.00
2023-03-28T08:47:31.602Z,100.00
2023-03-28T08:50:04.453Z,100.00
2023-03-28T08:52:34.932Z,100.00
2023-03-28T08:55:07.208Z,100.00
2023-03-28T08:57:38.029Z,100.00
2023-03-28T09:00:17.360Z,100.00
2023-03-28T09:02:47.241Z,100.00
2023-03-28T09:05:23.520Z,100.00
2023-03-28T09:07:57.171Z,100.00
2023-03-28T09:10:30.814Z,100.00
2023-03-28T09:13:10.453Z,100.00
2023-03-28T09:16:03.246Z,100.00
2023-03-28T09:18:55.842Z,100.00
2023-03-28T09:21:31.255Z,100.00
2023-03-28T09:24:13.163Z,100.00
2023-03-28T09:26:45.280Z,100.00
2023-03-28T09:29:17.906Z,100.00
2023-03-28T09:31:52.802Z,100.00
2023-03-28T09:34:27.469Z,100.00
2023-03-28T09:37:01.150Z,100.00
2023-03-28T09:39:36.947Z,100.00
2023-03-28T09:42:09.457Z,100.00
2023-03-28T09:44:54.362Z,100.00
2023-03-28T09:47:27.570Z,100.00
2023-03-28T09:50:09.576Z,100.00
2023-03-28T09:52:42.184Z,100.00
2023-03-28T09:55:18.714Z,100.00
2023-03-28T09:58:09.692Z,100.00
2023-03-28T10:00:40.780Z,100.00
2023-03-28T10:03:23.297Z,100.00
2023-03-28T10:05:54.078Z,100.00
2023-03-28T10:08:29.863Z,100.00
2023-03-28T10:11:03.290Z,100.00
2023-03-28T10:13:40.524Z,100.00
2023-03-28T10:16:12.537Z,100.00
2023-03-28T10:18:45.639Z,100.00
2023-03-28T10:21:17.911Z,100.00
2023-03-28T10:23:51.465Z,100.00
2023-03-28T10:26:24.602Z,100.00
2023-03-28T10:28:57.627Z,100.00
2023-03-28T10:31:29.775Z,100.00
2023-03-28T10:34:03.198Z,100.00
2023-03-28T10:36:34.849Z,100.00
2023-03-28T10:39:24.006Z,100.00
2023-03-28T10:41:57.560Z,100.00
2023-03-28T10:44:31.758Z,100.00
2023-03-28T10:47:04.872Z,100.00
2023-03-28T10:49:44.184Z,100.00
2023-03-28T10:52:19.684Z,100.00
2023-03-28T10:54:57.308Z,100.00
2023-03-28T10:57:29.946Z,100.00
2023-03-28T11:00:04.162Z,100.00
2023-03-28T11:03:16.282Z,100.00
2023-03-28T11:06:08.058Z,100.00
2023-03-28T11:08:46.039Z,100.00
2023-03-28T11:11:30.094Z,100.00
2023-03-28T11:14:04.409Z,100.00
2023-03-28T11:16:42.511Z,100.00
2023-03-28T11:19:17.898Z,100.00
2023-03-28T11:21:55.149Z,100.00
2023-03-28T11:24:30.815Z,100.00
2023-03-28T11:27:15.386Z,100.00
2023-03-28T11:29:49.417Z,100.00
2023-03-28T11:32:21.768Z,100.00
2023-03-28T11:35:04.607Z,100.00
2023-03-28T11:37:39.888Z,100.00
2023-03-28T11:40:18.526Z,100.00
2023-03-28T11:42:52.071Z,100.00
2023-03-28T11:45:46.734Z,100.00
2023-03-28T11:48:22.264Z,100.00
2023-03-28T11:50:59.472Z,100.00
2023-03-28T11:53:34.711Z,100.00
2023-03-28T11:56:09.550Z,100.00
2023-03-28T11:58:43.087Z,100.00
2023-03-28T12:01:15.828Z,100.00
2023-03-28T12:03:56.371Z,100.00
2023-03-28T12:06:29.856Z,100.00
2023-03-28T12:09:05.172Z,100.00
2023-03-28T12:11:37.510Z,100.00
2023-03-28T12:14:12.821Z,100.00
2023-03-28T12:16:45.436Z,100.00
2023-03-28T12:19:18.651Z,100.00
2023-03-28T12:21:54.383Z,100.00
2023-03-28T12:24:35.480Z,100.00
2023-03-28T12:27:09.464Z,100.00
2023-03-28T12:29:44.296Z,100.00
2023-03-28T12:32:27.533Z,100.00
2023-03-28T12:35:19.862Z,100.00
2023-03-28T12:38:00.996Z,100.00
2023-03-28T12:40:45.869Z,100.00
2023-03-28T12:43:16.309Z,100.00
2023-03-28T12:45:49.087Z,100.00
2023-03-28T12:48:21.044Z,100.00
2023-03-28T12:50:54.350Z,100.00
2023-03-28T12:53:24.365Z,100.00
2023-03-28T12:55:56.739Z,100.00
2023-03-28T12:58:29.553Z,100.00
2023-03-28T13:01:04.986Z,100.00
2023-03-28T13:03:40.064Z,100.00
2023-03-28T13:06:17.658Z,100.00
2023-03-28T13:08:57.606Z,100.00
2023-03-28T13:11:36.455Z,100.00
2023-03-28T13:14:08.913Z,100.00
2023-03-28T13:16:48.901Z,100.00
2023-03-28T13:19:20.410Z,100.00
2023-03-28T13:21:54.136Z,100.00
2023-03-28T13:24:34.739Z,100.00
2023-03-28T13:27:09.657Z,100.00
2023-03-28T13:29:49.830Z,100.00
2023-03-28T13:32:21.041Z,100.00
2023-03-28T13:34:51.742Z,100.00
2023-03-28T13:37:23.816Z,100.00
2023-03-28T13:39:54.976Z,100.00
2023-03-28T13:42:36.007Z,100.00
2023-03-28T13:45:08.027Z,100.00
2023-03-28T13:47:39.494Z,100.00
2023-03-28T13:50:19.620Z,100.00
2023-03-28T13:52:49.161Z,100.00
2023-03-28T13:55:23.551Z,100.00
2023-03-28T13:57:56.236Z,100.00
2023-03-28T14:00:29.026Z,100.00
2023-03-28T14:03:05.551Z,100.00
2023-03-28T14:05:36.106Z,100.00
2023-03-28T14:08:23.946Z,100.00
2023-03-28T14:10:55.580Z,100.00
2023-03-28T14:13:30.529Z,100.00
2023-03-28T14:16:00.320Z,100.00
2023-03-28T14:18:33.941Z,100.00
2023-03-28T14:21:06.722Z,100.00
2023-03-28T14:23:39.063Z,100.00
2023-03-28T14:26:13.951Z,100.00
2023-03-28T14:28:47.513Z,100.00
2023-03-28T14:31:18.782Z,100.00
2023-03-28T14:33:49.672Z,100.00
2023-03-28T14:36:19.501Z,100.00
2023-03-28T14:38:49.241Z,100.00
2023-03-28T14:41:21.694Z,100.00
2023-03-28T14:43:57.519Z,100.00
2023-03-28T14:46:29.495Z,100.00
2023-03-28T14:49:01.557Z,100.00
2023-03-28T14:51:31.073Z,100.00
2023-03-28T14:54:00.560Z,100.00
2023-03-28T14:56:30.864Z,100.00
2023-03-28T14:59:05.634Z,100.00
2023-03-28T15:01:37.919Z,100.00
2023-03-28T15:04:09.366Z,100.00
2023-03-28T15:06:39.554Z,100.00
2023-03-28T15:09:13.905Z,100.00
2023-03-28T15:11:46.328Z,100.00
2023-03-28T15:14:20.428Z,100.00
2023-03-28T15:16:50.295Z,100.00
2023-03-28T15:19:23.316Z,100.00
2023-03-28T15:21:57.558Z,100.00
2023-03-28T15:24:29.187Z,100.00
2023-03-28T15:27:01.770Z,100.00
2023-03-28T15:29:39.600Z,100.00
2023-03-28T15:32:10.779Z,100.00
2023-03-28T15:34:49.142Z,100.00
2023-03-28T15:37:22.700Z,100.00
2023-03-28T15:39:53.201Z,100.00
2023-03-28T15:42:38.232Z,100.00
2023-03-28T15:45:38.590Z,100.00
2023-03-28T15:48:08.792Z,100.00
2023-03-28T15:50:39.379Z,100.00
2023-03-28T15:53:10.602Z,100.00
2023-03-28T15:55:40.159Z,100.00
2023-03-28T15:58:09.984Z,100.00
2023-03-28T16:00:45.841Z,100.00
2023-03-28T16:03:34.220Z,100.00
2023-03-28T16:06:31.698Z,100.00
2023-03-28T16:09:17.118Z,100.00
2023-03-28T16:11:47.303Z,100.00
2023-03-28T16:14:20.548Z,100.00
2023-03-28T16:16:56.598Z,100.00
2023-03-28T16:19:28.391Z,100.00
2023-03-28T16:22:00.539Z,100.00
2023-03-28T16:24:31.513Z,100.00
2023-03-28T16:27:01.478Z,100.00
2023-03-28T16:29:31.072Z,98.77
2023-03-28T16:32:03.389Z,98.57
2023-03-28T16:34:33.009Z,98.01
2023-03-28T16:37:02.499Z,97.98
2023-03-28T16:39:32.447Z,97.41
2023-03-28T16:42:01.978Z,97.22
2023-03-28T16:44:32.492Z,98.71
2023-03-28T16:47:05.795Z,100.00
2023-03-28T16:49:35.388Z,98.81
2023-03-28T16:52:05.348Z,99.14
2023-03-28T16:54:34.855Z,99.56
2023-03-28T16:57:07.124Z,99.54
2023-03-28T16:59:38.868Z,100.00
2023-03-28T17:02:12.827Z,100.00
2023-03-28T17:04:42.296Z,100.00
2023-03-28T17:07:11.792Z,100.00
2023-03-28T17:09:42.860Z,100.00
2023-03-28T17:12:12.442Z,100.00
2023-03-28T17:14:42.493Z,100.00
2023-03-28T17:17:17.708Z,100.00
2023-03-28T17:19:47.173Z,100.00
2023-03-28T17:22:16.840Z,100.00
2023-03-28T17:24:46.987Z,100.00
2023-03-28T17:27:17.067Z,100.00
2023-03-28T17:29:46.586Z,100.00
2023-03-28T17:32:18.808Z,100.00
2023-03-28T17:34:48.516Z,100.00
2023-03-28T17:37:18.093Z,100.00
2023-03-28T17:39:47.690Z,100.00
2023-03-28T17:42:17.490Z,100.00
2023-03-28T17:44:47.278Z,100.00
2023-03-28T17:47:19.384Z,100.00
2023-03-28T17:49:49.292Z,100.00
2023-03-28T17:52:19.333Z,100.00
2023-03-28T17:54:51.354Z,100.00
2023-03-28T17:57:21.624Z,100.00
2023-03-28T17:59:51.234Z,100.00
2023-03-28T18:02:23.453Z,100.00
2023-03-28T18:04:53.758Z,100.00
2023-03-28T18:07:23.283Z,100.00
2023-03-28T18:09:52.848Z,100.00
2023-03-28T18:12:22.627Z,100.00
2023-03-28T18:14:52.096Z,100.00
2023-03-28T18:17:24.298Z,100.00
2023-03-28T18:19:53.837Z,100.00
2023-03-28T18:22:23.484Z,100.00
2023-03-28T18:24:56.182Z,100.00
2023-03-28T18:27:25.641Z,100.00
2023-03-28T18:29:55.154Z,100.00
2023-03-28T18:32:27.645Z,100.00
2023-03-28T18:34:57.134Z,100.00
2023-03-28T18:37:27.170Z,100.00
2023-03-28T18:39:57.558Z,100.00
2023-03-28T18:42:27.882Z,100.00
2023-03-28T18:44:59.658Z,100.00
2023-03-28T18:47:32.246Z,100.00
2023-03-28T18:50:01.719Z,100.00
2023-03-28T18:52:31.262Z,100.00
2023-03-28T18:55:01.308Z,100.00
2023-03-28T18:57:30.782Z,100.00
2023-03-28T19:00:07.879Z,100.00
2023-03-28T19:02:40.141Z,100.00
2023-03-28T19:05:11.046Z,100.00
2023-03-28T19:07:41.017Z,100.00
2023-03-28T19:10:13.036Z,100.00
2023-03-28T19:12:43.038Z,100.00
2023-03-28T19:15:14.943Z,100.00
2023-03-28T19:17:47.808Z,100.00
2023-03-28T19:20:17.490Z,100.00
2023-03-28T19:22:47.054Z,100.00
2023-03-28T19:25:16.785Z,100.00
2023-03-28T19:27:48.505Z,100.00
2023-03-28T19:30:18.327Z,100.00
2023-03-28T19:32:50.896Z,100.00
2023-03-28T19:35:20.560Z,100.00
2023-03-28T19:37:50.039Z,100.00
2023-03-28T19:40:19.681Z,100.00
2023-03-28T19:42:49.523Z,100.00
2023-03-28T19:45:19.220Z,100.00
2023-03-28T19:47:51.901Z,100.00
2023-03-28T19:50:22.005Z,100.00
2023-03-28T19:52:51.640Z,100.00
2023-03-28T19:55:21.217Z,100.00
2023-03-28T19:57:50.801Z,100.00
2023-03-28T20:00:21.540Z,100.00
2023-03-28T20:02:54.134Z,100.00
2023-03-28T20:05:23.754Z,100.00
2023-03-28T20:07:53.259Z,100.00
2023-03-28T20:10:22.737Z,100.00
2023-03-28T20:12:52.217Z,100.00
2023-03-28T20:15:21.736Z,100.00
2023-03-28T20:17:53.869Z,100.00
2023-03-28T20:20:24.092Z,100.00
2023-03-28T20:22:53.809Z,100.00
2023-03-28T20:25:24.355Z,100.00
2023-03-28T20:27:54.073Z,100.00
2023-03-28T20:30:23.572Z,100.00
2023-03-28T20:32:55.837Z,100.00
2023-03-28T20:35:26.830Z,100.00
2023-03-28T20:37:57.117Z,100.00
2023-03-28T20:40:26.771Z,100.00
2023-03-28T20:42:57.568Z,100.00
2023-03-28T20:45:27.176Z,100.00
2023-03-28T20:48:06.455Z,100.00
2023-03-28T20:50:37.713Z,100.00
2023-03-28T20:53:08.242Z,100.00
2023-03-28T20:55:37.934Z,100.00
2023-03-28T20:58:08.833Z,100.00
2023-03-28T21:00:39.903Z,100.00
2023-03-28T21:03:15.885Z,100.00
2023-03-28T21:05:46.833Z,100.00
2023-03-28T21:08:19.719Z,100.00
2023-03-28T21:10:54.784Z,100.00
2023-03-28T21:13:24.301Z,100.00
2023-03-28T21:15:53.802Z,100.00
2023-03-28T21:18:26.258Z,100.00
2023-03-28T21:20:56.420Z,100.00
2023-03-28T21:23:26.166Z,100.00
2023-03-28T21:25:55.675Z,100.00
2023-03-28T21:28:25.162Z,100.00
2023-03-28T21:31:01.718Z,100.00
2023-03-28T21:33:33.960Z,100.00
2023-03-28T21:36:04.418Z,100.00
2023-03-28T21:38:33.973Z,100.00
2023-03-28T21:41:03.720Z,100.00
2023-03-28T21:43:33.382Z,100.00
2023-03-28T21:46:02.978Z,100.00
2023-03-28T21:48:35.086Z,100.00
2023-03-28T21:51:04.887Z,100.00
2023-03-28T21:53:36.300Z,100.00
2023-03-28T21:56:06.846Z,100.00
2023-03-28T21:58:36.839Z,100.00
2023-03-28T22:01:06.958Z,100.00
2023-03-28T22:03:40.862Z,100.00
2023-03-28T22:06:11.587Z,100.00
2023-03-28T22:08:41.213Z,100.00
2023-03-28T22:11:14.807Z,100.00
2023-03-28T22:13:45.171Z,100.00
2023-03-28T22:16:15.689Z,100.00
2023-03-28T22:18:50.485Z,100.00
2023-03-28T22:21:20.187Z,100.00
2023-03-28T22:23:49.901Z,100.00
2023-03-28T22:26:20.114Z,100.00
2023-03-28T22:28:49.981Z,100.00
2023-03-28T22:31:19.586Z,100.00
2023-03-28T22:33:51.874Z,100.00
2023-03-28T22:36:23.684Z,100.00
2023-03-28T22:38:54.902Z,100.00
2023-03-28T22:41:32.114Z,100.00
2023-03-28T22:44:01.701Z,100.00
2023-03-28T22:46:31.372Z,100.00
2023-03-28T22:49:04.663Z,100.00
2023-03-28T22:51:34.540Z,100.00
2023-03-28T22:54:06.204Z,100.00
2023-03-28T22:56:35.724Z,100.00
2023-03-28T22:59:05.199Z,100.00
2023-03-28T23:01:35.395Z,100.00
2023-03-28T23:04:07.941Z,100.00
2023-03-28T23:06:39.238Z,100.00
2023-03-28T23:09:08.901Z,100.00
2023-03-28T23:11:38.698Z,100.00
2023-03-28T23:14:08.335Z,100.00
2023-03-28T23:16:38.634Z,100.00
2023-03-28T23:19:11.101Z,100.00
2023-03-28T23:21:41.721Z,100.00
2023-03-28T23:24:12.020Z,100.00
2023-03-28T23:26:41.683Z,100.00
2023-03-28T23:29:11.337Z,100.00
2023-03-28T23:31:41.091Z,100.00
2023-03-28T23:34:13.203Z,100.00
2023-03-28T23:36:42.982Z,100.00
2023-03-28T23:39:13.487Z,100.00
2023-03-28T23:41:43.466Z,100.00
2023-03-28T23:44:12.989Z,100.00
2023-03-28T23:46:45.068Z,100.00
2023-03-28T23:49:17.170Z,100.00
2023-03-28T23:51:46.969Z,100.00
2023-03-28T23:54:18.170Z,100.00
2023-03-28T23:56:49.276Z,100.00
2023-03-28T23:59:19.234Z,100.00
